sensor_id;sensor_type;location;lat;lon;timestamp;temperature;humidity
13310;DHT22;6723;48.256;16.402;2024-03-23T00:54:29;12.90;98.60
13310;DHT22;6723;48.256;16.402;2024-03-23T00:56:55;13.00;98.80
13310;DHT22;6723;48.256;16.402;2024-03-23T00:59:24;13.00;99.00
13310;DHT22;6723;48.256;16.402;2024-03-23T01:01:57;13.00;99.00
13310;DHT22;6723;48.256;16.402;2024-03-23T01:04:23;12.90;98.90
13310;DHT22;6723;48.256;16.402;2024-03-23T01:06:48;12.80;99.00
13310;DHT22;6723;48.256;16.402;2024-03-23T01:09:14;12.80;99.20
13310;DHT22;6723;48.256;16.402;2024-03-23T01:11:43;12.90;99.30
13310;DHT22;6723;48.256;16.402;2024-03-23T01:14:09;12.80;99.20
13310;DHT22;6723;48.256;16.402;2024-03-23T01:16:34;12.80;99.30
13310;DHT22;6723;48.256;16.402;2024-03-23T01:19:01;12.80;99.40
13310;DHT22;6723;48.256;16.402;2024-03-23T01:21:27;12.80;99.40
13310;DHT22;6723;48.256;16.402;2024-03-23T01:23:52;12.80;99.50
13310;DHT22;6723;48.256;16.402;2024-03-23T01:26:18;12.70;99.60
13310;DHT22;6723;48.256;16.402;2024-03-23T01:28:44;12.80;99.80
13310;DHT22;6723;48.256;16.402;2024-03-23T01:31:10;12.80;99.80
13310;DHT22;6723;48.256;16.402;2024-03-23T01:33:36;12.80;99.80
13310;DHT22;6723;48.256;16.402;2024-03-23T01:36:02;12.70;99.70
13310;DHT22;6723;48.256;16.402;2024-03-23T01:38:27;12.70;99.90
13310;DHT22;6723;48.256;16.402;2024-03-23T01:40:57;12.70;99.90
13310;DHT22;6723;48.256;16.402;2024-03-23T01:43:23;12.70;99.80
13310;DHT22;6723;48.256;16.402;2024-03-23T01:45:49;12.70;99.80
13310;DHT22;6723;48.256;16.402;2024-03-23T01:48:15;12.70;99.80
13310;DHT22;6723;48.256;16.402;2024-03-23T01:50:41;12.70;99.80
13310;DHT22;6723;48.256;16.402;2024-03-23T01:53:07;12.70;99.80
13310;DHT22;6723;48.256;16.402;2024-03-23T01:55:33;12.80;99.70
13310;DHT22;6723;48.256;16.402;2024-03-23T01:57:59;12.70;99.60
13310;DHT22;6723;48.256;16.402;2024-03-23T02:00:25;12.70;99.60
13310;DHT22;6723;48.256;16.402;2024-03-23T02:02:52;12.70;99.60
13310;DHT22;6723;48.256;16.402;2024-03-23T02:05:18;12.70;99.60
13310;DHT22;6723;48.256;16.402;2024-03-23T02:07:44;12.80;99.70
13310;DHT22;6723;48.256;16.402;2024-03-23T02:10:10;12.70;99.50
13310;DHT22;6723;48.256;16.402;2024-03-23T02:12:39;12.70;99.40
13310;DHT22;6723;48.256;16.402;2024-03-23T02:15:05;12.70;99.60
13310;DHT22;6723;48.256;16.402;2024-03-23T02:17:34;12.60;99.60
13310;DHT22;6723;48.256;16.402;2024-03-23T02:20:02;12.60;99.70
13310;DHT22;6723;48.256;16.402;2024-03-23T02:22:38;12.60;99.90
13310;DHT22;6723;48.256;16.402;2024-03-23T02:25:05;12.60;99.90
13310;DHT22;6723;48.256;16.402;2024-03-23T02:27:31;12.70;99.90
13310;DHT22;6723;48.256;16.402;2024-03-23T02:29:57;12.70;99.90
13310;DHT22;6723;48.256;16.402;2024-03-23T02:32:22;12.70;99.90
13310;DHT22;6723;48.256;16.402;2024-03-23T02:34:48;12.70;99.90
13310;DHT22;6723;48.256;16.402;2024-03-23T02:37:14;12.60;99.90
13310;DHT22;6723;48.256;16.402;2024-03-23T02:39:40;12.70;99.90
13310;DHT22;6723;48.256;16.402;2024-03-23T02:42:06;12.60;99.90
13310;DHT22;6723;48.256;16.402;2024-03-23T02:44:32;12.60;99.90
13310;DHT22;6723;48.256;16.402;2024-03-23T02:46:57;12.50;99.90
13310;DHT22;6723;48.256;16.402;2024-03-23T02:49:23;12.50;99.90
13310;DHT22;6723;48.256;16.402;2024-03-23T02:51:49;12.50;99.90
13310;DHT22;6723;48.256;16.402;2024-03-23T02:54:15;12.50;99.90
13310;DHT22;6723;48.256;16.402;2024-03-23T02:56:40;12.50;99.90
13310;DHT22;6723;48.256;16.402;2024-03-23T02:59:06;12.50;99.90
13310;DHT22;6723;48.256;16.402;2024-03-23T03:01:32;12.50;99.90
13310;DHT22;6723;48.256;16.402;2024-03-23T03:03:58;12.50;99.90
13310;DHT22;6723;48.256;16.402;2024-03-23T03:06:25;12.40;99.90
13310;DHT22;6723;48.256;16.402;2024-03-23T03:08:51;12.50;99.90
13310;DHT22;6723;48.256;16.402;2024-03-23T03:11:16;12.50;99.90
13310;DHT22;6723;48.256;16.402;2024-03-23T03:13:42;12.50;99.90
13310;DHT22;6723;48.256;16.402;2024-03-23T03:16:10;12.40;99.90
13310;DHT22;6723;48.256;16.402;2024-03-23T03:18:35;12.40;99.90
13310;DHT22;6723;48.256;16.402;2024-03-23T03:21:01;12.50;99.90
13310;DHT22;6723;48.256;16.402;2024-03-23T03:23:28;12.40;99.90
13310;DHT22;6723;48.256;16.402;2024-03-23T03:25:54;12.40;99.90
13310;DHT22;6723;48.256;16.402;2024-03-23T03:28:20;12.40;99.90
13310;DHT22;6723;48.256;16.402;2024-03-23T03:30:46;12.40;99.90
13310;DHT22;6723;48.256;16.402;2024-03-23T03:33:12;12.30;99.90
13310;DHT22;6723;48.256;16.402;2024-03-23T03:35:38;12.30;99.90
13310;DHT22;6723;48.256;16.402;2024-03-23T03:38:04;12.30;99.90
13310;DHT22;6723;48.256;16.402;2024-03-23T03:40:30;12.30;99.90
13310;DHT22;6723;48.256;16.402;2024-03-23T03:42:56;12.30;99.90
13310;DHT22;6723;48.256;16.402;2024-03-23T03:45:22;12.40;99.90
13310;DHT22;6723;48.256;16.402;2024-03-23T03:47:48;12.30;99.90
13310;DHT22;6723;48.256;16.402;2024-03-23T03:50:14;12.40;99.90
13310;DHT22;6723;48.256;16.402;2024-03-23T03:52:42;12.30;99.90
13310;DHT22;6723;48.256;16.402;2024-03-23T03:55:13;12.30;99.90
13310;DHT22;6723;48.256;16.402;2024-03-23T03:57:39;12.30;99.90
13310;DHT22;6723;48.256;16.402;2024-03-23T04:00:06;12.30;99.90
13310;DHT22;6723;48.256;16.402;2024-03-23T04:02:37;12.30;99.90
13310;DHT22;6723;48.256;16.402;2024-03-23T04:05:03;12.30;99.90
13310;DHT22;6723;48.256;16.402;2024-03-23T04:07:28;12.30;99.90
13310;DHT22;6723;48.256;16.402;2024-03-23T04:09:54;12.30;99.90
13310;DHT22;6723;48.256;16.402;2024-03-23T04:12:20;12.20;99.90
13310;DHT22;6723;48.256;16.402;2024-03-23T04:14:46;12.20;99.90
13310;DHT22;6723;48.256;16.402;2024-03-23T04:17:12;12.20;99.90
13310;DHT22;6723;48.256;16.402;2024-03-23T04:19:37;12.20;99.90
13310;DHT22;6723;48.256;16.402;2024-03-23T04:22:04;12.10;99.90
13310;DHT22;6723;48.256;16.402;2024-03-23T04:24:30;12.10;99.90
13310;DHT22;6723;48.256;16.402;2024-03-23T04:26:56;12.10;99.90
13310;DHT22;6723;48.256;16.402;2024-03-23T04:29:22;12.20;99.90
13310;DHT22;6723;48.256;16.402;2024-03-23T04:31:52;12.10;99.90
13310;DHT22;6723;48.256;16.402;2024-03-23T04:34:18;12.10;99.90
13310;DHT22;6723;48.256;16.402;2024-03-23T04:36:44;12.10;99.90
13310;DHT22;6723;48.256;16.402;2024-03-23T04:39:10;12.00;99.90
13310;DHT22;6723;48.256;16.402;2024-03-23T04:41:36;12.10;99.90
13310;DHT22;6723;48.256;16.402;2024-03-23T04:44:01;12.10;99.90
13310;DHT22;6723;48.256;16.402;2024-03-23T04:46:27;12.20;99.90
13310;DHT22;6723;48.256;16.402;2024-03-23T04:48:53;12.20;99.90
13310;DHT22;6723;48.256;16.402;2024-03-23T04:51:23;12.20;99.90
13310;DHT22;6723;48.256;16.402;2024-03-23T04:53:49;12.20;99.90
13310;DHT22;6723;48.256;16.402;2024-03-23T04:56:15;12.20;99.90
13310;DHT22;6723;48.256;16.402;2024-03-23T04:58:42;12.20;99.90
13310;DHT22;6723;48.256;16.402;2024-03-23T05:01:08;12.20;99.90
13310;DHT22;6723;48.256;16.402;2024-03-23T05:03:34;12.30;99.90
13310;DHT22;6723;48.256;16.402;2024-03-23T05:06:00;12.20;99.90
13310;DHT22;6723;48.256;16.402;2024-03-23T05:08:28;12.30;99.90
13310;DHT22;6723;48.256;16.402;2024-03-23T05:10:54;12.30;99.90
13310;DHT22;6723;48.256;16.402;2024-03-23T05:13:20;12.30;99.90
13310;DHT22;6723;48.256;16.402;2024-03-23T05:15:54;12.30;99.90
13310;DHT22;6723;48.256;16.402;2024-03-23T05:18:20;12.30;99.90
13310;DHT22;6723;48.256;16.402;2024-03-23T05:20:46;12.30;99.90
13310;DHT22;6723;48.256;16.402;2024-03-23T05:23:12;12.30;99.90
13310;DHT22;6723;48.256;16.402;2024-03-23T05:25:38;12.30;99.90
13310;DHT22;6723;48.256;16.402;2024-03-23T05:28:04;12.30;99.90
13310;DHT22;6723;48.256;16.402;2024-03-23T05:30:31;12.40;99.90
13310;DHT22;6723;48.256;16.402;2024-03-23T05:32:56;12.50;99.90
13310;DHT22;6723;48.256;16.402;2024-03-23T05:35:22;12.50;99.90
13310;DHT22;6723;48.256;16.402;2024-03-23T05:37:48;12.60;99.90
13310;DHT22;6723;48.256;16.402;2024-03-23T05:40:14;12.60;99.90
13310;DHT22;6723;48.256;16.402;2024-03-23T05:42:41;12.70;99.90
13310;DHT22;6723;48.256;16.402;2024-03-23T05:45:07;12.70;99.90
13310;DHT22;6723;48.256;16.402;2024-03-23T05:47:33;12.80;99.90
13310;DHT22;6723;48.256;16.402;2024-03-23T05:50:02;12.80;99.90
13310;DHT22;6723;48.256;16.402;2024-03-23T05:52:28;12.90;99.90
13310;DHT22;6723;48.256;16.402;2024-03-23T05:54:54;13.10;99.90
13310;DHT22;6723;48.256;16.402;2024-03-23T05:57:20;13.10;99.90
13310;DHT22;6723;48.256;16.402;2024-03-23T05:59:45;13.20;99.90
13310;DHT22;6723;48.256;16.402;2024-03-23T06:02:11;13.20;99.90
13310;DHT22;6723;48.256;16.402;2024-03-23T06:04:38;13.30;99.90
13310;DHT22;6723;48.256;16.402;2024-03-23T06:07:04;13.50;99.90
13310;DHT22;6723;48.256;16.402;2024-03-23T06:09:39;13.40;99.90
13310;DHT22;6723;48.256;16.402;2024-03-23T06:12:06;13.30;99.90
13310;DHT22;6723;48.256;16.402;2024-03-23T06:14:31;13.30;99.90
13310;DHT22;6723;48.256;16.402;2024-03-23T06:16:59;13.50;99.90
13310;DHT22;6723;48.256;16.402;2024-03-23T06:19:25;13.50;99.90
13310;DHT22;6723;48.256;16.402;2024-03-23T06:21:54;13.60;99.90
13310;DHT22;6723;48.256;16.402;2024-03-23T06:24:23;13.60;99.90
13310;DHT22;6723;48.256;16.402;2024-03-23T06:26:50;13.70;99.90
13310;DHT22;6723;48.256;16.402;2024-03-23T06:29:16;13.70;99.90
13310;DHT22;6723;48.256;16.402;2024-03-23T06:31:41;13.60;99.90
13310;DHT22;6723;48.256;16.402;2024-03-23T06:34:07;13.60;99.90
13310;DHT22;6723;48.256;16.402;2024-03-23T06:36:33;13.60;99.90
13310;DHT22;6723;48.256;16.402;2024-03-23T06:38:59;13.50;99.90
13310;DHT22;6723;48.256;16.402;2024-03-23T06:41:25;13.50;99.90
13310;DHT22;6723;48.256;16.402;2024-03-23T06:43:51;13.50;99.90
13310;DHT22;6723;48.256;16.402;2024-03-23T06:46:17;13.60;99.90
13310;DHT22;6723;48.256;16.402;2024-03-23T06:48:46;13.60;99.90
13310;DHT22;6723;48.256;16.402;2024-03-23T06:51:12;13.70;99.90
13310;DHT22;6723;48.256;16.402;2024-03-23T06:53:38;13.60;99.90
13310;DHT22;6723;48.256;16.402;2024-03-23T06:56:06;13.60;99.90
13310;DHT22;6723;48.256;16.402;2024-03-23T06:58:32;13.60;99.90
13310;DHT22;6723;48.256;16.402;2024-03-23T07:00:58;13.60;99.90
13310;DHT22;6723;48.256;16.402;2024-03-23T07:03:24;13.60;99.90
13310;DHT22;6723;48.256;16.402;2024-03-23T07:05:51;13.60;99.90
13310;DHT22;6723;48.256;16.402;2024-03-23T07:08:17;13.70;99.90
13310;DHT22;6723;48.256;16.402;2024-03-23T07:10:46;13.80;99.90
13310;DHT22;6723;48.256;16.402;2024-03-23T07:13:12;13.70;99.90
13310;DHT22;6723;48.256;16.402;2024-03-23T07:15:38;13.70;99.90
13310;DHT22;6723;48.256;16.402;2024-03-23T07:18:04;13.90;99.90
13310;DHT22;6723;48.256;16.402;2024-03-23T07:20:30;13.90;99.90
13310;DHT22;6723;48.256;16.402;2024-03-23T07:22:56;14.00;99.90
13310;DHT22;6723;48.256;16.402;2024-03-23T07:25:22;14.10;99.90
13310;DHT22;6723;48.256;16.402;2024-03-23T07:27:49;14.10;99.90
13310;DHT22;6723;48.256;16.402;2024-03-23T07:30:15;14.20;99.90
13310;DHT22;6723;48.256;16.402;2024-03-23T07:32:44;14.30;99.90
13310;DHT22;6723;48.256;16.402;2024-03-23T07:35:10;14.40;99.90
13310;DHT22;6723;48.256;16.402;2024-03-23T07:37:35;14.40;99.90
13310;DHT22;6723;48.256;16.402;2024-03-23T07:40:01;14.50;99.90
13310;DHT22;6723;48.256;16.402;2024-03-23T07:42:28;14.60;99.90
13310;DHT22;6723;48.256;16.402;2024-03-23T07:44:54;14.80;99.90
13310;DHT22;6723;48.256;16.402;2024-03-23T07:47:22;14.80;99.90
13310;DHT22;6723;48.256;16.402;2024-03-23T07:49:48;14.90;99.90
13310;DHT22;6723;48.256;16.402;2024-03-23T07:52:14;15.00;99.50
13310;DHT22;6723;48.256;16.402;2024-03-23T07:54:40;15.10;99.50
13310;DHT22;6723;48.256;16.402;2024-03-23T07:57:06;15.60;99.00
13310;DHT22;6723;48.256;16.402;2024-03-23T07:59:32;17.60;97.90
13310;DHT22;6723;48.256;16.402;2024-03-23T08:01:59;19.30;94.70
13310;DHT22;6723;48.256;16.402;2024-03-23T08:04:26;20.70;92.80
13310;DHT22;6723;48.256;16.402;2024-03-23T08:06:52;22.20;90.70
13310;DHT22;6723;48.256;16.402;2024-03-23T08:09:18;23.50;87.60
13310;DHT22;6723;48.256;16.402;2024-03-23T08:11:44;23.30;82.80
13310;DHT22;6723;48.256;16.402;2024-03-23T08:14:12;23.20;83.20
13310;DHT22;6723;48.256;16.402;2024-03-23T08:16:38;23.20;82.20
13310;DHT22;6723;48.256;16.402;2024-03-23T08:19:03;23.50;80.80
13310;DHT22;6723;48.256;16.402;2024-03-23T08:21:30;23.70;80.50
13310;DHT22;6723;48.256;16.402;2024-03-23T08:23:56;23.80;79.70
13310;DHT22;6723;48.256;16.402;2024-03-23T08:26:22;23.20;79.10
13310;DHT22;6723;48.256;16.402;2024-03-23T08:28:48;22.80;79.30
13310;DHT22;6723;48.256;16.402;2024-03-23T08:31:14;22.30;79.90
13310;DHT22;6723;48.256;16.402;2024-03-23T08:33:40;22.10;80.40
13310;DHT22;6723;48.256;16.402;2024-03-23T08:36:09;22.50;79.30
13310;DHT22;6723;48.256;16.402;2024-03-23T08:38:38;22.10;80.10
13310;DHT22;6723;48.256;16.402;2024-03-23T08:41:09;22.60;79.30
13310;DHT22;6723;48.256;16.402;2024-03-23T08:43:40;22.30;79.60
13310;DHT22;6723;48.256;16.402;2024-03-23T08:46:11;22.70;79.30
13310;DHT22;6723;48.256;16.402;2024-03-23T08:48:42;22.60;79.80
13310;DHT22;6723;48.256;16.402;2024-03-23T08:51:09;23.00;79.20
13310;DHT22;6723;48.256;16.402;2024-03-23T08:53:36;22.50;80.00
13310;DHT22;6723;48.256;16.402;2024-03-23T08:56:02;23.00;79.30
13310;DHT22;6723;48.256;16.402;2024-03-23T08:58:30;22.70;77.90
13310;DHT22;6723;48.256;16.402;2024-03-23T09:01:02;22.50;77.60
13310;DHT22;6723;48.256;16.402;2024-03-23T09:03:28;21.80;78.90
13310;DHT22;6723;48.256;16.402;2024-03-23T09:05:54;22.60;79.40
13310;DHT22;6723;48.256;16.402;2024-03-23T09:08:21;23.40;77.40
13310;DHT22;6723;48.256;16.402;2024-03-23T09:10:47;23.00;75.70
13310;DHT22;6723;48.256;16.402;2024-03-23T09:13:14;22.70;77.40
13310;DHT22;6723;48.256;16.402;2024-03-23T09:15:50;22.80;77.80
13310;DHT22;6723;48.256;16.402;2024-03-23T09:18:16;23.90;75.70
13310;DHT22;6723;48.256;16.402;2024-03-23T09:20:43;23.90;76.70
13310;DHT22;6723;48.256;16.402;2024-03-23T09:23:09;23.80;75.70
13310;DHT22;6723;48.256;16.402;2024-03-23T09:25:38;23.90;74.70
13310;DHT22;6723;48.256;16.402;2024-03-23T09:28:05;23.70;74.70
13310;DHT22;6723;48.256;16.402;2024-03-23T09:30:35;23.70;75.50
13310;DHT22;6723;48.256;16.402;2024-03-23T09:33:07;23.50;74.90
13310;DHT22;6723;48.256;16.402;2024-03-23T09:35:37;23.50;75.00
13310;DHT22;6723;48.256;16.402;2024-03-23T09:38:03;24.00;75.50
13310;DHT22;6723;48.256;16.402;2024-03-23T09:40:28;23.90;73.80
13310;DHT22;6723;48.256;16.402;2024-03-23T09:42:54;23.80;74.20
13310;DHT22;6723;48.256;16.402;2024-03-23T09:45:23;23.70;73.50
13310;DHT22;6723;48.256;16.402;2024-03-23T09:47:52;23.90;72.60
13310;DHT22;6723;48.256;16.402;2024-03-23T09:50:19;24.00;71.50
13310;DHT22;6723;48.256;16.402;2024-03-23T09:52:48;24.20;72.90
13310;DHT22;6723;48.256;16.402;2024-03-23T09:55:14;24.90;72.00
13310;DHT22;6723;48.256;16.402;2024-03-23T09:57:40;25.30;70.40
13310;DHT22;6723;48.256;16.402;2024-03-23T10:00:07;25.10;69.70
13310;DHT22;6723;48.256;16.402;2024-03-23T10:02:34;25.40;69.90
13310;DHT22;6723;48.256;16.402;2024-03-23T10:05:00;25.50;69.60
13310;DHT22;6723;48.256;16.402;2024-03-23T10:07:26;25.60;69.30
13310;DHT22;6723;48.256;16.402;2024-03-23T10:09:54;26.40;69.10
13310;DHT22;6723;48.256;16.402;2024-03-23T10:12:20;26.70;67.20
13310;DHT22;6723;48.256;16.402;2024-03-23T10:14:46;26.50;67.10
13310;DHT22;6723;48.256;16.402;2024-03-23T10:19:49;27.00;66.20
13310;DHT22;6723;48.256;16.402;2024-03-23T10:22:21;27.00;66.40
13310;DHT22;6723;48.256;16.402;2024-03-23T10:24:47;27.30;65.80
13310;DHT22;6723;48.256;16.402;2024-03-23T10:27:18;27.20;66.40
13310;DHT22;6723;48.256;16.402;2024-03-23T10:29:48;27.60;66.40
13310;DHT22;6723;48.256;16.402;2024-03-23T10:32:15;27.90;65.80
13310;DHT22;6723;48.256;16.402;2024-03-23T10:34:41;29.00;65.00
13310;DHT22;6723;48.256;16.402;2024-03-23T10:37:08;29.40;63.50
13310;DHT22;6723;48.256;16.402;2024-03-23T10:39:34;29.30;62.20
13310;DHT22;6723;48.256;16.402;2024-03-23T10:42:05;29.40;60.30
13310;DHT22;6723;48.256;16.402;2024-03-23T10:44:31;29.90;60.50
13310;DHT22;6723;48.256;16.402;2024-03-23T10:46:58;29.60;61.30
13310;DHT22;6723;48.256;16.402;2024-03-23T10:49:35;30.50;61.50
13310;DHT22;6723;48.256;16.402;2024-03-23T10:52:03;29.30;61.10
13310;DHT22;6723;48.256;16.402;2024-03-23T10:54:33;29.30;59.70
13310;DHT22;6723;48.256;16.402;2024-03-23T10:57:09;28.70;60.40
13310;DHT22;6723;48.256;16.402;2024-03-23T10:59:40;29.30;59.70
13310;DHT22;6723;48.256;16.402;2024-03-23T11:02:06;29.30;59.80
13310;DHT22;6723;48.256;16.402;2024-03-23T11:04:39;29.40;61.00
13310;DHT22;6723;48.256;16.402;2024-03-23T11:09:50;29.90;59.30
13310;DHT22;6723;48.256;16.402;2024-03-23T11:17:24;30.80;63.00
13310;DHT22;6723;48.256;16.402;2024-03-23T11:22:41;30.60;61.80
13310;DHT22;6723;48.256;16.402;2024-03-23T11:25:20;30.20;57.50
13310;DHT22;6723;48.256;16.402;2024-03-23T11:27:48;29.40;59.60
13310;DHT22;6723;48.256;16.402;2024-03-23T11:30:25;27.70;59.40
13310;DHT22;6723;48.256;16.402;2024-03-23T11:32:55;27.20;58.60
13310;DHT22;6723;48.256;16.402;2024-03-23T11:35:36;26.10;61.30
13310;DHT22;6723;48.256;16.402;2024-03-23T11:38:15;25.30;63.30
13310;DHT22;6723;48.256;16.402;2024-03-23T11:40:42;25.10;62.60
13310;DHT22;6723;48.256;16.402;2024-03-23T11:43:10;24.60;62.90
13310;DHT22;6723;48.256;16.402;2024-03-23T11:45:39;24.50;63.00
13310;DHT22;6723;48.256;16.402;2024-03-23T11:50:33;24.10;63.20
13310;DHT22;6723;48.256;16.402;2024-03-23T11:53:15;24.00;62.90
13310;DHT22;6723;48.256;16.402;2024-03-23T11:58:12;23.10;64.20
13310;DHT22;6723;48.256;16.402;2024-03-23T12:00:39;22.80;64.20
13310;DHT22;6723;48.256;16.402;2024-03-23T12:03:05;22.90;65.30
13310;DHT22;6723;48.256;16.402;2024-03-23T12:05:32;22.70;66.10
13310;DHT22;6723;48.256;16.402;2024-03-23T12:10:49;22.50;66.70
13310;DHT22;6723;48.256;16.402;2024-03-23T12:13:16;22.50;66.60
13310;DHT22;6723;48.256;16.402;2024-03-23T12:15:43;22.40;68.70
13310;DHT22;6723;48.256;16.402;2024-03-23T12:18:10;22.30;68.80
13310;DHT22;6723;48.256;16.402;2024-03-23T12:20:37;22.40;68.50
13310;DHT22;6723;48.256;16.402;2024-03-23T12:23:10;22.40;68.40
13310;DHT22;6723;48.256;16.402;2024-03-23T12:25:38;22.40;68.30
13310;DHT22;6723;48.256;16.402;2024-03-23T12:28:04;22.10;68.00
13310;DHT22;6723;48.256;16.402;2024-03-23T12:30:36;22.00;67.90
13310;DHT22;6723;48.256;16.402;2024-03-23T12:33:04;22.00;68.60
13310;DHT22;6723;48.256;16.402;2024-03-23T12:35:30;21.90;67.60
13310;DHT22;6723;48.256;16.402;2024-03-23T12:37:56;21.90;69.00
13310;DHT22;6723;48.256;16.402;2024-03-23T12:40:21;21.70;68.10
13310;DHT22;6723;48.256;16.402;2024-03-23T12:42:47;21.50;67.80
13310;DHT22;6723;48.256;16.402;2024-03-23T12:45:13;21.40;68.70
13310;DHT22;6723;48.256;16.402;2024-03-23T12:47:39;21.40;69.50
13310;DHT22;6723;48.256;16.402;2024-03-23T12:50:07;21.30;68.60
13310;DHT22;6723;48.256;16.402;2024-03-23T12:52:35;21.20;66.80
13310;DHT22;6723;48.256;16.402;2024-03-23T12:55:02;21.10;67.00
13310;DHT22;6723;48.256;16.402;2024-03-23T12:57:31;21.00;68.00
13310;DHT22;6723;48.256;16.402;2024-03-23T12:59:58;20.90;69.00
13310;DHT22;6723;48.256;16.402;2024-03-23T13:02:24;20.70;70.00
13310;DHT22;6723;48.256;16.402;2024-03-23T13:04:51;20.50;74.50
13310;DHT22;6723;48.256;16.402;2024-03-23T13:07:18;19.80;78.90
13310;DHT22;6723;48.256;16.402;2024-03-23T13:09:44;18.60;80.20
13310;DHT22;6723;48.256;16.402;2024-03-23T13:12:10;17.90;81.70
13310;DHT22;6723;48.256;16.402;2024-03-23T13:14:39;17.90;82.60
13310;DHT22;6723;48.256;16.402;2024-03-23T13:17:05;17.40;81.80
13310;DHT22;6723;48.256;16.402;2024-03-23T13:19:31;17.20;82.70
13310;DHT22;6723;48.256;16.402;2024-03-23T13:21:58;17.00;83.20
13310;DHT22;6723;48.256;16.402;2024-03-23T13:24:27;16.70;83.20
13310;DHT22;6723;48.256;16.402;2024-03-23T13:26:54;16.30;83.70
13310;DHT22;6723;48.256;16.402;2024-03-23T13:29:20;16.10;84.60
13310;DHT22;6723;48.256;16.402;2024-03-23T13:31:48;15.90;85.40
13310;DHT22;6723;48.256;16.402;2024-03-23T13:34:14;15.90;85.90
13310;DHT22;6723;48.256;16.402;2024-03-23T13:36:44;15.80;86.70
13310;DHT22;6723;48.256;16.402;2024-03-23T13:39:11;15.60;88.40
13310;DHT22;6723;48.256;16.402;2024-03-23T13:41:40;15.70;89.10
13310;DHT22;6723;48.256;16.402;2024-03-23T13:44:07;15.80;91.20
13310;DHT22;6723;48.256;16.402;2024-03-23T13:46:34;15.80;91.80
13310;DHT22;6723;48.256;16.402;2024-03-23T13:49:00;15.60;92.80
13310;DHT22;6723;48.256;16.402;2024-03-23T13:51:27;15.30;95.50
13310;DHT22;6723;48.256;16.402;2024-03-23T13:53:56;15.10;96.00
13310;DHT22;6723;48.256;16.402;2024-03-23T13:56:25;14.90;96.90
13310;DHT22;6723;48.256;16.402;2024-03-23T13:58:51;14.70;98.60
13310;DHT22;6723;48.256;16.402;2024-03-23T14:01:17;14.20;99.90
13310;DHT22;6723;48.256;16.402;2024-03-23T14:03:43;13.80;99.90
13310;DHT22;6723;48.256;16.402;2024-03-23T14:06:10;13.80;99.90
13310;DHT22;6723;48.256;16.402;2024-03-23T14:08:37;13.60;99.90
13310;DHT22;6723;48.256;16.402;2024-03-23T14:11:05;13.60;99.90
13310;DHT22;6723;48.256;16.402;2024-03-23T14:13:32;13.50;99.90
13310;DHT22;6723;48.256;16.402;2024-03-23T14:15:58;13.40;99.90
13310;DHT22;6723;48.256;16.402;2024-03-23T14:18:24;13.40;99.90
13310;DHT22;6723;48.256;16.402;2024-03-23T14:20:57;13.40;99.90
13310;DHT22;6723;48.256;16.402;2024-03-23T14:23:27;13.20;99.90
13310;DHT22;6723;48.256;16.402;2024-03-23T14:25:59;13.20;99.90
13310;DHT22;6723;48.256;16.402;2024-03-23T14:28:25;12.80;99.90
13310;DHT22;6723;48.256;16.402;2024-03-23T14:30:54;12.70;99.90
13310;DHT22;6723;48.256;16.402;2024-03-23T14:33:20;12.40;99.90
13310;DHT22;6723;48.256;16.402;2024-03-23T14:35:56;12.30;99.90
13310;DHT22;6723;48.256;16.402;2024-03-23T14:38:25;12.20;99.90
13310;DHT22;6723;48.256;16.402;2024-03-23T14:40:50;12.00;99.90
13310;DHT22;6723;48.256;16.402;2024-03-23T14:43:19;12.00;99.90
13310;DHT22;6723;48.256;16.402;2024-03-23T14:46:12;11.60;99.90
13310;DHT22;6723;48.256;16.402;2024-03-23T14:48:39;11.60;99.90
13310;DHT22;6723;48.256;16.402;2024-03-23T14:51:06;11.50;99.90
13310;DHT22;6723;48.256;16.402;2024-03-23T14:53:33;11.40;99.90
13310;DHT22;6723;48.256;16.402;2024-03-23T14:56:02;11.40;99.90
13310;DHT22;6723;48.256;16.402;2024-03-23T14:58:29;11.50;99.90
13310;DHT22;6723;48.256;16.402;2024-03-23T15:01:05;11.40;99.90
13310;DHT22;6723;48.256;16.402;2024-03-23T15:03:38;11.30;99.90
13310;DHT22;6723;48.256;16.402;2024-03-23T15:06:08;11.10;99.90
13310;DHT22;6723;48.256;16.402;2024-03-23T15:08:35;11.20;99.90
13310;DHT22;6723;48.256;16.402;2024-03-23T15:11:06;11.20;99.90
13310;DHT22;6723;48.256;16.402;2024-03-23T15:13:35;11.00;99.90
13310;DHT22;6723;48.256;16.402;2024-03-23T15:16:02;10.90;99.90
13310;DHT22;6723;48.256;16.402;2024-03-23T15:18:34;10.80;99.90
13310;DHT22;6723;48.256;16.402;2024-03-23T15:21:02;10.60;99.90
13310;DHT22;6723;48.256;16.402;2024-03-23T15:23:30;10.60;99.90
13310;DHT22;6723;48.256;16.402;2024-03-23T15:26:00;10.40;99.90
13310;DHT22;6723;48.256;16.402;2024-03-23T15:28:27;10.30;99.90
13310;DHT22;6723;48.256;16.402;2024-03-23T15:31:04;10.10;99.90
13310;DHT22;6723;48.256;16.402;2024-03-23T15:33:30;10.10;99.90
13310;DHT22;6723;48.256;16.402;2024-03-23T15:35:59;10.20;99.90
13310;DHT22;6723;48.256;16.402;2024-03-23T15:38:25;10.20;99.90
13310;DHT22;6723;48.256;16.402;2024-03-23T15:40:52;9.90;99.90
13310;DHT22;6723;48.256;16.402;2024-03-23T15:43:18;9.90;99.90
13310;DHT22;6723;48.256;16.402;2024-03-23T15:45:44;9.80;99.90
13310;DHT22;6723;48.256;16.402;2024-03-23T15:48:10;10.00;99.90
13310;DHT22;6723;48.256;16.402;2024-03-23T15:50:35;10.00;99.90
13310;DHT22;6723;48.256;16.402;2024-03-23T15:53:04;10.00;99.90
13310;DHT22;6723;48.256;16.402;2024-03-23T15:55:30;10.00;99.90
13310;DHT22;6723;48.256;16.402;2024-03-23T15:57:55;10.00;99.90
13310;DHT22;6723;48.256;16.402;2024-03-23T16:00:21;10.10;99.90
13310;DHT22;6723;48.256;16.402;2024-03-23T16:02:47;10.10;99.90
13310;DHT22;6723;48.256;16.402;2024-03-23T16:05:14;10.10;99.90
13310;DHT22;6723;48.256;16.402;2024-03-23T16:07:40;10.20;99.90
13310;DHT22;6723;48.256;16.402;2024-03-23T16:10:06;10.20;99.90
13310;DHT22;6723;48.256;16.402;2024-03-23T16:12:35;10.20;99.90
13310;DHT22;6723;48.256;16.402;2024-03-23T16:15:01;10.10;99.90
13310;DHT22;6723;48.256;16.402;2024-03-23T16:17:26;10.10;99.90
13310;DHT22;6723;48.256;16.402;2024-03-23T16:19:52;10.10;99.90
13310;DHT22;6723;48.256;16.402;2024-03-23T16:22:19;10.10;99.90
13310;DHT22;6723;48.256;16.402;2024-03-23T16:24:44;10.00;99.90
13310;DHT22;6723;48.256;16.402;2024-03-23T16:27:10;10.00;99.90
13310;DHT22;6723;48.256;16.402;2024-03-23T16:29:36;10.00;99.90
13310;DHT22;6723;48.256;16.402;2024-03-23T16:32:02;10.00;99.90
13310;DHT22;6723;48.256;16.402;2024-03-23T16:34:28;10.10;99.90
13310;DHT22;6723;48.256;16.402;2024-03-23T16:36:53;10.10;99.90
13310;DHT22;6723;48.256;16.402;2024-03-23T16:39:19;10.10;99.90
13310;DHT22;6723;48.256;16.402;2024-03-23T16:41:45;10.10;99.90
13310;DHT22;6723;48.256;16.402;2024-03-23T16:44:11;10.10;99.90